Vienna, Maryland
Current Conditions -  °F | °C
As of 12:14 PM on Friday 31 Oct 2014 (Local Time) from KCGE Reporting Station
Clear Clear  
Wind Chill: 55°   Ceiling: Unl
Heat Index: 55°   Visibility: 10mi
Dew Point: 37°   Wind: 7mph
Humidity: 51%   Direction: 30°NNE
Pressure: 29.93"   Gusts: NA
Location:  38.48°N, 75.82°W
Report Text: KCGE 311614Z AUTO 03006KT 10SM CLR 13/03 A2993 RMK AO1
Loading
Personal Weather Stations






























Interactive Weather Map
Tropical Storm Tracking
New forecast layout! Learn more

10-Day Weather Forecast

Advertisements
Track Severe Weather on mobile